This is the latest recevied weather packets stored in our database for station/object DK0KTL-4. If no packets are shown the sender has not sent any weather packets the latest 1 day(s).
| Time | Temp. | Humidity | Pressure | Rain* | Wind** | Luminosity | Snow |
|---|---|---|---|---|---|---|---|
| 1778081549 | 20° C | 52% | 1003.2 hPa | 0 mm | - | - | - |
| 1778080648 | 20.56° C | 51% | 1003.4 hPa | 0 mm | - | - | - |
| 1778079447 | 20.56° C | 51% | 1003.5 hPa | 0 mm | - | - | - |
| 1778078546 | 20.56° C | 51% | 1003.6 hPa | 0 mm | - | - | - |
| 1778077645 | 20.56° C | 55% | 1003.5 hPa | 0 mm | - | - | - |
| 1778077345 | 20.56° C | 55% | 1003.6 hPa | 0 mm | - | - | - |
| 1778076444 | 21.11° C | 51% | 1003.6 hPa | 0 mm | - | - | - |
| 1778075543 | 20.56° C | 54% | 1003.7 hPa | 0 mm | - | - | - |
| 1778074642 | 21.11° C | 52% | 1003.8 hPa | 0 mm | - | - | - |
| 1778074342 | 21.11° C | 51% | 1003.6 hPa | 0 mm | - | - | - |
| 1778072540 | 20.56° C | 51% | 1004.1 hPa | 0 mm | - | - | - |
| 1778072240 | 20.56° C | 52% | 1004 hPa | 0 mm | - | - | - |
| 1778071339 | 20.56° C | 57% | 1004.1 hPa | 0 mm | - | - | - |
| 1778070138 | 20° C | 55% | 1004 hPa | 0 mm | - | - | - |
| 1778068036 | 19.44° C | 55% | 1004 hPa | 0 mm | - | - | - |
| 1778065333 | 17.78° C | 65% | 1004.1 hPa | 0 mm | - | - | - |
| 1778065033 | 17.78° C | 63% | 1004.1 hPa | 0 mm | - | - | - |
| 1778064132 | 17.78° C | 62% | 1004.2 hPa | 0 mm | - | - | - |
| 1778062030 | 17.78° C | 65% | 1004.4 hPa | 0 mm | - | - | - |
| 1778061730 | 17.78° C | 64% | 1004.5 hPa | 0 mm | - | - | - |
| 1778060829 | 17.78° C | 65% | 1004.4 hPa | 0 mm | - | - | - |
| 1778059928 | 17.78° C | 63% | 1004.2 hPa | 0 mm | - | - | - |
| 1778059327 | 17.78° C | 62% | 1004.1 hPa | 0 mm | - | - | - |
| 1778058727 | 18.33° C | 67% | 1004.1 hPa | 0 mm | - | - | - |
| 1778056925 | 16.67° C | 70% | 1004.1 hPa | 0 mm | - | - | - |
* Rain latest hour (hover to see other rain measurements)
** Current wind speed in m/s (hover to see current wind gust speed)